createdAt,value
2019-04-07T00:00:34.593Z,73.19
2019-04-07T00:01:34.558Z,72.78
2019-04-07T00:02:34.633Z,72.89
2019-04-07T00:03:34.609Z,72.96
2019-04-07T00:04:34.520Z,72.69
2019-04-07T00:05:34.581Z,73.30
2019-04-07T00:06:35.071Z,73.60
2019-04-07T00:07:34.629Z,73.36
2019-04-07T00:08:34.482Z,74.08
2019-04-07T00:09:34.470Z,73.19
2019-04-07T00:10:34.454Z,72.75
2019-04-07T00:11:34.607Z,72.65
2019-04-07T00:12:34.627Z,72.75
2019-04-07T00:13:34.429Z,72.34
2019-04-07T00:14:34.414Z,72.75
2019-04-07T00:15:34.506Z,72.65
2019-04-07T00:16:34.448Z,72.34
2019-04-07T00:17:34.376Z,72.69
2019-04-07T00:18:34.381Z,73.10
2019-04-07T00:19:34.924Z,73.40
2019-04-07T00:20:34.359Z,73.30
2019-04-07T00:21:34.370Z,73.43
2019-04-07T00:22:34.543Z,73.30
2019-04-07T00:23:34.312Z,73.74
2019-04-07T00:24:34.331Z,74.45
2019-04-07T00:25:34.285Z,74.15
2019-04-07T00:26:34.442Z,74.45
2019-04-07T00:27:34.311Z,74.45
2019-04-07T00:28:34.305Z,74.90
2019-04-07T00:29:34.421Z,74.79
2019-04-07T00:30:34.256Z,74.99
2019-04-07T00:31:34.255Z,74.79
2019-04-07T00:32:34.214Z,75.10
2019-04-07T00:33:34.204Z,75.10
2019-04-07T00:34:34.715Z,74.49
2019-04-07T00:35:34.171Z,74.79
2019-04-07T00:36:34.236Z,74.86
2019-04-07T00:37:34.177Z,74.79
2019-04-07T00:38:34.699Z,74.90
2019-04-07T00:39:34.578Z,74.69
2019-04-07T00:40:34.128Z,74.90
2019-04-07T00:41:34.118Z,74.90
2019-04-07T00:42:34.679Z,74.49
2019-04-07T00:43:34.250Z,74.49
2019-04-07T00:44:34.377Z,74.90
2019-04-07T00:45:34.062Z,74.79
2019-04-07T00:46:34.443Z,74.99
2019-04-07T00:47:34.077Z,74.58
2019-04-07T00:48:34.035Z,74.79
2019-04-07T00:49:34.649Z,74.79
2019-04-07T00:50:33.998Z,74.86
2019-04-07T00:51:34.218Z,74.55
2019-04-07T00:52:34.005Z,74.69
2019-04-07T00:53:34.319Z,74.45
2019-04-07T00:54:33.954Z,75.37
2019-04-07T00:55:34.305Z,74.96
2019-04-07T00:56:33.931Z,75.06
2019-04-07T00:57:33.972Z,74.99
2019-04-07T00:58:34.382Z,74.55
2019-04-07T00:59:33.901Z,74.04
2019-04-07T01:00:34.603Z,74.55
2019-04-07T01:01:33.892Z,74.65
2019-04-07T01:02:33.864Z,74.96
2019-04-07T01:03:33.881Z,74.65
2019-04-07T01:04:34.303Z,74.86
2019-04-07T01:05:38.391Z,74.21
2019-04-07T01:06:34.830Z,73.23
2019-04-07T01:07:34.468Z,73.60
2019-04-07T01:08:33.822Z,73.40
2019-04-07T01:09:34.108Z,73.10
2019-04-07T01:10:33.862Z,72.78
2019-04-07T01:11:34.295Z,72.78
2019-04-07T01:12:33.752Z,72.69
2019-04-07T01:13:33.765Z,72.92
2019-04-07T01:14:33.726Z,73.02
2019-04-07T01:15:33.983Z,72.78
2019-04-07T01:16:33.711Z,72.99
2019-04-07T01:17:33.691Z,72.99
2019-04-07T01:18:33.893Z,72.89
2019-04-07T01:19:34.370Z,72.92
2019-04-07T01:20:33.662Z,72.82
2019-04-07T01:21:33.653Z,72.92
2019-04-07T01:22:34.607Z,73.02
2019-04-07T01:23:33.727Z,73.33
2019-04-07T01:24:34.132Z,73.02
2019-04-07T01:25:33.608Z,73.13
2019-04-07T01:26:33.924Z,73.23
2019-04-07T01:27:33.697Z,73.57
2019-04-07T01:28:33.569Z,73.64
2019-04-07T01:29:34.159Z,74.15
2019-04-07T01:30:33.655Z,74.04
2019-04-07T01:31:34.129Z,74.08
2019-04-07T01:32:33.533Z,73.67
2019-04-07T01:33:33.579Z,74.08
2019-04-07T01:34:34.066Z,74.18
2019-04-07T01:35:44.438Z,74.28
2019-04-07T01:36:34.482Z,74.49
2019-04-07T01:37:34.068Z,74.69
2019-04-07T01:38:33.452Z,74.49
2019-04-07T01:39:33.713Z,74.69
2019-04-07T01:40:33.780Z,74.79
2019-04-07T01:41:34.057Z,75.20
2019-04-07T01:42:33.479Z,74.49
2019-04-07T01:43:33.936Z,74.69
2019-04-07T01:44:33.495Z,74.69
2019-04-07T01:45:33.391Z,74.69
2019-04-07T01:46:33.901Z,74.69
2019-04-07T01:47:33.357Z,74.49
2019-04-07T01:48:33.363Z,74.58
2019-04-07T01:49:33.860Z,74.18
2019-04-07T01:50:33.861Z,74.28
2019-04-07T01:51:33.361Z,73.88
2019-04-07T01:52:33.729Z,73.97
2019-04-07T01:53:33.414Z,74.18
2019-04-07T01:54:33.410Z,74.18
2019-04-07T01:55:33.531Z,74.38
2019-04-07T01:56:33.760Z,74.38
2019-04-07T01:57:33.874Z,74.55
2019-04-07T01:58:33.826Z,74.79
2019-04-07T01:59:33.216Z,74.08
2019-04-07T02:00:33.781Z,74.28
2019-04-07T02:01:33.817Z,74.69
2019-04-07T02:02:33.325Z,74.49
2019-04-07T02:03:33.202Z,74.18
2019-04-07T02:04:33.562Z,74.28
2019-04-07T02:05:33.160Z,74.49
2019-04-07T02:06:33.319Z,73.88
2019-04-07T02:07:33.797Z,74.18
2019-04-07T02:08:33.146Z,74.58
2019-04-07T02:09:33.703Z,74.73
2019-04-07T02:10:33.126Z,74.69
2019-04-07T02:11:33.126Z,74.49
2019-04-07T02:12:33.432Z,73.97
2019-04-07T02:13:33.059Z,74.18
2019-04-07T02:14:33.047Z,74.25
2019-04-07T02:15:33.066Z,74.28
2019-04-07T02:16:33.023Z,73.97
2019-04-07T02:17:33.016Z,73.47
2019-04-07T02:18:33.001Z,73.88
2019-04-07T02:19:33.665Z,73.77
2019-04-07T02:20:33.335Z,73.26
2019-04-07T02:21:32.971Z,73.67
2019-04-07T02:22:32.961Z,73.77
2019-04-07T02:23:32.945Z,73.67
2019-04-07T02:24:33.410Z,73.47
2019-04-07T02:25:32.953Z,73.36
2019-04-07T02:26:33.221Z,73.57
2019-04-07T02:27:33.420Z,73.57
2019-04-07T02:28:33.035Z,73.67
2019-04-07T02:29:33.437Z,73.77
2019-04-07T02:30:33.192Z,73.40
2019-04-07T02:31:32.886Z,73.57
2019-04-07T02:32:32.856Z,73.77
2019-04-07T02:33:33.155Z,73.36
2019-04-07T02:34:33.847Z,73.43
2019-04-07T02:35:32.820Z,73.23
2019-04-07T02:36:33.784Z,73.57
2019-04-07T02:37:33.346Z,73.47
2019-04-07T02:38:33.461Z,73.47
2019-04-07T02:39:32.866Z,73.57
2019-04-07T02:40:33.071Z,73.57
2019-04-07T02:41:32.775Z,73.36
2019-04-07T02:42:32.733Z,73.26
2019-04-07T02:43:32.797Z,73.36
2019-04-07T02:44:33.634Z,73.40
2019-04-07T02:45:32.698Z,73.57
2019-04-07T02:46:33.292Z,73.36
2019-04-07T02:47:32.679Z,73.77
2019-04-07T02:48:32.663Z,73.67
2019-04-07T02:49:33.808Z,74.11
2019-04-07T02:50:33.322Z,74.42
2019-04-07T02:51:32.663Z,73.60
2019-04-07T02:52:33.191Z,74.42
2019-04-07T02:53:33.005Z,74.11
2019-04-07T02:54:32.598Z,73.71
2019-04-07T02:55:33.511Z,74.01
2019-04-07T02:56:32.612Z,74.21
2019-04-07T02:57:32.588Z,74.21
2019-04-07T02:58:32.828Z,73.60
2019-04-07T02:59:33.468Z,74.11
2019-04-07T03:00:32.541Z,73.91
2019-04-07T03:01:33.002Z,73.60
2019-04-07T03:02:33.322Z,74.05
2019-04-07T03:03:33.093Z,73.50
2019-04-07T03:04:32.943Z,73.71
2019-04-07T03:05:33.264Z,74.01
2019-04-07T03:06:43.212Z,73.71
2019-04-07T03:07:33.482Z,73.60
2019-04-07T03:08:32.582Z,73.91
2019-04-07T03:09:33.424Z,73.64
2019-04-07T03:10:33.484Z,73.33
2019-04-07T03:11:32.860Z,74.11
2019-04-07T03:12:33.268Z,73.54
2019-04-07T03:13:33.064Z,74.05
2019-04-07T03:14:33.386Z,74.05
2019-04-07T03:15:32.800Z,74.32
2019-04-07T03:16:32.359Z,74.05
2019-04-07T03:17:32.347Z,74.05
2019-04-07T03:18:33.106Z,73.84
2019-04-07T03:19:33.305Z,74.15
2019-04-07T03:20:32.556Z,74.15
2019-04-07T03:21:33.050Z,74.29
2019-04-07T03:22:32.500Z,74.45
2019-04-07T03:23:32.311Z,74.69
2019-04-07T03:24:32.470Z,75.00
2019-04-07T03:25:32.550Z,75.20
2019-04-07T03:26:32.422Z,75.10
2019-04-07T03:27:32.250Z,75.10
2019-04-07T03:28:33.264Z,75.00
2019-04-07T03:29:33.165Z,75.20
2019-04-07T03:30:33.150Z,74.69
2019-04-07T03:31:32.879Z,75.00
2019-04-07T03:32:33.683Z,75.24
2019-04-07T03:33:33.522Z,75.54
2019-04-07T03:34:33.613Z,75.54
2019-04-07T03:35:34.081Z,75.24
2019-04-07T03:36:41.140Z,75.75
2019-04-07T03:37:38.735Z,75.51
2019-04-07T03:38:33.542Z,75.54
2019-04-07T03:39:33.224Z,75.51
2019-04-07T03:40:32.078Z,75.65
2019-04-07T03:41:33.112Z,75.65
2019-04-07T03:42:32.773Z,75.61
2019-04-07T03:43:32.138Z,75.65
2019-04-07T03:44:32.276Z,75.95
2019-04-07T03:45:32.549Z,75.75
2019-04-07T03:46:32.594Z,75.75
2019-04-07T03:47:32.157Z,75.65
2019-04-07T03:48:32.013Z,75.78
2019-04-07T03:49:31.989Z,75.78
2019-04-07T03:50:31.960Z,75.54
2019-04-07T03:51:32.257Z,75.54
2019-04-07T03:52:32.227Z,75.54
2019-04-07T03:53:32.388Z,75.65
2019-04-07T03:54:31.964Z,75.48
2019-04-07T03:55:31.907Z,75.85
2019-04-07T03:56:31.890Z,75.65
2019-04-07T03:57:32.472Z,75.37
2019-04-07T03:58:32.287Z,75.89
2019-04-07T03:59:31.911Z,75.68
2019-04-07T04:00:31.852Z,75.78
2019-04-07T04:01:33.028Z,75.54
2019-04-07T04:02:31.840Z,75.48
2019-04-07T04:03:32.240Z,75.13
2019-04-07T04:04:31.834Z,75.07
2019-04-07T04:05:32.454Z,75.04
2019-04-07T04:06:32.259Z,74.87
2019-04-07T04:07:36.111Z,74.93
2019-04-07T04:08:32.770Z,74.63
2019-04-07T04:09:32.440Z,75.04
2019-04-07T04:10:31.780Z,74.63
2019-04-07T04:11:32.372Z,75.24
2019-04-07T04:12:31.895Z,75.13
2019-04-07T04:13:32.712Z,74.93
2019-04-07T04:14:31.721Z,74.76
2019-04-07T04:15:31.714Z,74.63
2019-04-07T04:16:32.078Z,75.34
2019-04-07T04:17:32.714Z,75.68
2019-04-07T04:18:31.650Z,75.68
2019-04-07T04:19:31.638Z,75.78
2019-04-07T04:20:32.291Z,75.58
2019-04-07T04:21:31.619Z,75.68
2019-04-07T04:22:32.514Z,75.44
2019-04-07T04:23:31.739Z,75.27
2019-04-07T04:24:31.770Z,75.17
2019-04-07T04:25:32.204Z,75.27
2019-04-07T04:26:31.843Z,75.17
2019-04-07T04:27:31.551Z,74.63
2019-04-07T04:28:31.677Z,74.93
2019-04-07T04:29:31.818Z,75.17
2019-04-07T04:30:32.047Z,75.07
2019-04-07T04:31:31.527Z,75.37
2019-04-07T04:32:31.649Z,75.07
2019-04-07T04:33:31.488Z,75.17
2019-04-07T04:34:31.846Z,74.66
2019-04-07T04:35:32.320Z,75.07
2019-04-07T04:36:40.398Z,74.56
2019-04-07T04:37:41.230Z,75.07
2019-04-07T04:38:32.431Z,74.93
2019-04-07T04:39:31.537Z,75.07
2019-04-07T04:40:32.346Z,74.63
2019-04-07T04:41:31.431Z,74.66
2019-04-07T04:42:31.385Z,75.27
2019-04-07T04:43:40.356Z,75.27
2019-04-07T04:44:31.711Z,75.27
2019-04-07T04:45:31.715Z,74.66
2019-04-07T04:46:32.602Z,74.76
2019-04-07T04:47:31.322Z,74.87
2019-04-07T04:48:32.227Z,74.97
2019-04-07T04:49:31.299Z,75.27
2019-04-07T04:50:31.824Z,75.31
2019-04-07T04:51:35.536Z,75.71
2019-04-07T04:52:32.270Z,75.92
2019-04-07T04:53:32.056Z,75.41
2019-04-07T04:54:31.885Z,75.71
2019-04-07T04:55:31.887Z,75.82
2019-04-07T04:56:31.285Z,76.33
2019-04-07T04:57:32.050Z,75.82
2019-04-07T04:58:31.208Z,75.92
2019-04-07T04:59:31.292Z,75.82
2019-04-07T05:00:32.119Z,75.71
2019-04-07T05:01:31.199Z,75.71
2019-04-07T05:02:31.176Z,75.85
2019-04-07T05:03:31.589Z,75.85
2019-04-07T05:04:31.853Z,76.16
2019-04-07T05:05:31.129Z,76.12
2019-04-07T05:06:31.259Z,75.96
2019-04-07T05:07:31.103Z,76.06
2019-04-07T05:08:31.188Z,76.37
2019-04-07T05:09:41.093Z,76.37
2019-04-07T05:10:32.248Z,76.26
2019-04-07T05:11:31.600Z,76.12
2019-04-07T05:12:31.360Z,75.85
2019-04-07T05:13:31.581Z,75.75
2019-04-07T05:14:31.055Z,75.96
2019-04-07T05:15:31.022Z,75.85
2019-04-07T05:16:31.032Z,76.26
2019-04-07T05:17:31.148Z,76.16
2019-04-07T05:18:30.979Z,76.26
2019-04-07T05:19:30.967Z,76.16
2019-04-07T05:20:30.959Z,76.16
2019-04-07T05:21:31.512Z,76.16
2019-04-07T05:22:30.970Z,76.37
2019-04-07T05:23:31.737Z,75.96
2019-04-07T05:24:31.274Z,75.85
2019-04-07T05:25:31.068Z,75.85
2019-04-07T05:26:31.203Z,75.85
2019-04-07T05:27:30.915Z,76.06
2019-04-07T05:28:32.647Z,76.06
2019-04-07T05:29:32.471Z,75.82
2019-04-07T05:30:31.456Z,75.85
2019-04-07T05:31:30.898Z,75.45
2019-04-07T05:32:31.118Z,76.06
2019-04-07T05:33:30.912Z,75.75
2019-04-07T05:34:31.151Z,75.34
2019-04-07T05:35:30.921Z,75.55
2019-04-07T05:36:31.367Z,75.34
2019-04-07T05:37:31.055Z,75.55
2019-04-07T05:38:31.166Z,75.41
2019-04-07T05:39:30.973Z,75.21
2019-04-07T05:40:31.070Z,75.45
2019-04-07T05:41:31.230Z,74.84
2019-04-07T05:42:31.183Z,75.10
2019-04-07T05:43:30.833Z,74.90
2019-04-07T05:44:30.693Z,74.90
2019-04-07T05:45:31.515Z,75.14
2019-04-07T05:46:31.300Z,74.80
2019-04-07T05:47:31.381Z,75.00
2019-04-07T05:48:30.702Z,74.69
2019-04-07T05:49:31.387Z,74.90
2019-04-07T05:50:30.757Z,74.84
2019-04-07T05:51:31.364Z,74.80
2019-04-07T05:52:30.640Z,74.84
2019-04-07T05:53:30.650Z,74.80
2019-04-07T05:54:30.620Z,74.59
2019-04-07T05:55:30.594Z,74.59
2019-04-07T05:56:30.578Z,74.80
2019-04-07T05:57:33.357Z,75.00
2019-04-07T05:58:30.600Z,74.90
2019-04-07T05:59:30.540Z,74.59
2019-04-07T06:00:30.734Z,74.39
2019-04-07T06:01:31.246Z,73.94
2019-04-07T06:02:33.352Z,74.25
2019-04-07T06:03:30.834Z,73.84
2019-04-07T06:04:30.494Z,73.68
2019-04-07T06:05:30.628Z,73.54
2019-04-07T06:06:30.887Z,73.94
2019-04-07T06:07:31.944Z,73.54
2019-04-07T06:08:35.992Z,73.23
2019-04-07T06:09:33.514Z,73.03
2019-04-07T06:10:30.606Z,73.03
2019-04-07T06:11:33.028Z,73.13
2019-04-07T06:12:30.386Z,72.82
2019-04-07T06:13:30.410Z,72.89
2019-04-07T06:14:30.373Z,72.58
2019-04-07T06:15:30.380Z,72.89
2019-04-07T06:16:30.346Z,72.17
2019-04-07T06:17:30.361Z,71.87
2019-04-07T06:18:33.373Z,71.67
2019-04-07T06:19:30.366Z,71.67
2019-04-07T06:20:30.300Z,71.67
2019-04-07T06:21:30.305Z,71.63
2019-04-07T06:22:30.527Z,71.73
2019-04-07T06:23:30.861Z,71.22
2019-04-07T06:24:33.209Z,72.24
2019-04-07T06:25:34.737Z,71.63
2019-04-07T06:26:31.357Z,71.63
2019-04-07T06:27:30.614Z,71.09
2019-04-07T06:28:30.212Z,71.19
2019-04-07T06:29:30.226Z,71.33
2019-04-07T06:30:32.144Z,71.22
2019-04-07T06:31:32.200Z,71.09
2019-04-07T06:32:30.168Z,70.51
2019-04-07T06:33:30.515Z,70.31
2019-04-07T06:34:30.176Z,70.68
2019-04-07T06:35:30.163Z,70.68
2019-04-07T06:36:30.799Z,70.48
2019-04-07T06:37:30.802Z,69.56
2019-04-07T06:38:34.244Z,69.66
2019-04-07T06:39:32.263Z,69.22
2019-04-07T06:40:30.611Z,69.76
2019-04-07T06:41:31.434Z,69.42
2019-04-07T06:42:32.388Z,69.12
2019-04-07T06:43:30.287Z,69.73
2019-04-07T06:44:30.173Z,69.63
2019-04-07T06:45:30.574Z,69.63
2019-04-07T06:46:30.622Z,69.63
2019-04-07T06:47:31.395Z,69.53
2019-04-07T06:48:30.623Z,69.83
2019-04-07T06:49:30.007Z,69.09
2019-04-07T06:50:29.998Z,69.59
2019-04-07T06:51:31.138Z,69.49
2019-04-07T06:52:30.285Z,69.39
2019-04-07T06:53:30.189Z,69.49
2019-04-07T06:54:29.933Z,68.78
2019-04-07T06:55:32.694Z,68.88
2019-04-07T06:56:32.204Z,68.37
2019-04-07T06:57:29.969Z,68.04
2019-04-07T06:58:29.969Z,67.86
2019-04-07T06:59:29.865Z,67.83
2019-04-07T07:00:30.067Z,67.32
2019-04-07T07:01:30.643Z,67.83
2019-04-07T07:02:31.651Z,67.83
2019-04-07T07:03:33.591Z,67.22
2019-04-07T07:04:31.099Z,66.91
2019-04-07T07:05:30.067Z,66.91
2019-04-07T07:06:29.829Z,65.97
2019-04-07T07:07:29.772Z,66.61
2019-04-07T07:08:33.539Z,65.56
2019-04-07T07:09:30.744Z,65.36
2019-04-07T07:10:32.541Z,65.46
2019-04-07T07:11:32.409Z,64.95
2019-04-07T07:12:35.659Z,65.05
2019-04-07T07:13:34.278Z,64.81
2019-04-07T07:14:34.800Z,64.81
2019-04-07T07:15:34.212Z,64.81
2019-04-07T07:16:30.705Z,64.81
2019-04-07T07:17:29.662Z,65.33
2019-04-07T07:18:29.651Z,64.92
2019-04-07T07:19:29.763Z,64.79
2019-04-07T07:20:30.444Z,64.61
2019-04-07T07:21:34.011Z,64.11
2019-04-07T07:22:31.140Z,64.69
2019-04-07T07:23:29.595Z,64.18
2019-04-07T07:24:29.612Z,63.77
2019-04-07T07:25:32.007Z,63.67
2019-04-07T07:26:32.937Z,64.35
2019-04-07T07:27:29.587Z,63.64
2019-04-07T07:28:29.543Z,64.65
2019-04-07T07:29:29.988Z,63.64
2019-04-07T07:30:29.986Z,63.43
2019-04-07T07:31:29.501Z,63.84
2019-04-07T07:32:30.096Z,63.64
2019-04-07T07:33:30.698Z,63.74
2019-04-07T07:34:29.526Z,63.33
2019-04-07T07:35:29.712Z,63.84
2019-04-07T07:36:29.446Z,63.30
2019-04-07T07:37:30.112Z,63.20
2019-04-07T07:38:32.090Z,62.70
2019-04-07T07:39:29.616Z,62.79
2019-04-07T07:40:29.908Z,62.26
2019-04-07T07:41:29.396Z,62.05
2019-04-07T07:42:30.491Z,62.16
2019-04-07T07:43:30.229Z,61.93
2019-04-07T07:44:31.265Z,61.95
2019-04-07T07:45:29.375Z,62.16
2019-04-07T07:46:29.430Z,61.62
2019-04-07T07:47:29.683Z,61.41
2019-04-07T07:48:29.320Z,60.81
2019-04-07T07:49:32.524Z,61.11
2019-04-07T07:50:30.294Z,60.47
2019-04-07T07:51:29.338Z,61.18
2019-04-07T07:52:29.784Z,61.08
2019-04-07T07:53:29.285Z,60.40
2019-04-07T07:54:30.429Z,61.18
2019-04-07T07:55:33.840Z,61.08
2019-04-07T07:56:30.311Z,60.37
2019-04-07T07:57:29.216Z,60.44
2019-04-07T07:58:32.717Z,60.55
2019-04-07T07:59:33.142Z,60.75
2019-04-07T08:00:30.929Z,60.55
2019-04-07T08:01:29.922Z,60.35
2019-04-07T08:02:31.090Z,60.55
2019-04-07T08:03:29.179Z,60.65
2019-04-07T08:04:29.191Z,61.23
2019-04-07T08:05:31.704Z,60.01
2019-04-07T08:06:29.491Z,60.11
2019-04-07T08:07:29.104Z,61.00
2019-04-07T08:08:29.805Z,60.79
2019-04-07T08:09:29.096Z,60.31
2019-04-07T08:10:29.143Z,60.59
2019-04-07T08:11:32.186Z,59.88
2019-04-07T08:12:32.425Z,59.75
2019-04-07T08:13:30.082Z,59.14
2019-04-07T08:14:29.325Z,58.94
2019-04-07T08:15:32.253Z,58.76
2019-04-07T08:16:31.065Z,58.54
2019-04-07T08:17:31.611Z,58.64
2019-04-07T08:18:29.620Z,59.65
2019-04-07T08:19:30.415Z,58.54
2019-04-07T08:20:29.670Z,57.42
2019-04-07T08:21:29.135Z,57.62
2019-04-07T08:22:33.849Z,57.62
2019-04-07T08:23:29.927Z,57.50
2019-04-07T08:24:29.319Z,56.89
2019-04-07T08:25:29.160Z,57.50
2019-04-07T08:26:28.954Z,57.40
2019-04-07T08:27:31.737Z,57.50
2019-04-07T08:28:28.878Z,57.37
2019-04-07T08:29:29.134Z,57.37
2019-04-07T08:30:28.846Z,57.17
2019-04-07T08:31:29.279Z,57.57
2019-04-07T08:32:32.003Z,57.14
2019-04-07T08:33:29.618Z,57.14
2019-04-07T08:34:31.640Z,57.34
2019-04-07T08:35:28.893Z,57.14
2019-04-07T08:36:29.126Z,56.33
2019-04-07T08:37:28.766Z,56.02
2019-04-07T08:38:28.766Z,56.13
2019-04-07T08:39:32.363Z,56.40
2019-04-07T08:40:30.853Z,56.00
2019-04-07T08:41:28.879Z,56.23
2019-04-07T08:42:28.715Z,55.09
2019-04-07T08:43:28.713Z,55.29
2019-04-07T08:44:30.344Z,54.69
2019-04-07T08:45:31.660Z,55.80
2019-04-07T08:46:31.755Z,54.89
2019-04-07T08:47:28.976Z,55.80
2019-04-07T08:48:28.948Z,55.60
2019-04-07T08:49:32.085Z,55.69
2019-04-07T08:50:28.784Z,56.07
2019-04-07T08:51:30.783Z,54.96
2019-04-07T08:52:28.626Z,55.27
2019-04-07T08:53:29.412Z,55.16
2019-04-07T08:54:28.650Z,55.07
2019-04-07T08:55:28.604Z,55.16
2019-04-07T08:56:29.054Z,54.53
2019-04-07T08:57:30.492Z,55.34
2019-04-07T08:58:30.227Z,54.74
2019-04-07T08:59:30.246Z,55.54
2019-04-07T09:00:29.398Z,54.63
2019-04-07T09:01:29.676Z,55.34
2019-04-07T09:02:30.364Z,54.74
2019-04-07T09:03:29.163Z,54.63
2019-04-07T09:04:28.486Z,55.24
2019-04-07T09:05:30.959Z,55.14
2019-04-07T09:06:29.389Z,55.65
2019-04-07T09:07:28.713Z,55.24
2019-04-07T09:08:28.427Z,55.41
2019-04-07T09:09:34.149Z,55.04
2019-04-07T09:10:29.429Z,55.01
2019-04-07T09:11:28.394Z,55.52
2019-04-07T09:12:30.930Z,56.02
2019-04-07T09:13:31.670Z,56.12
2019-04-07T09:14:29.539Z,55.72
2019-04-07T09:15:28.384Z,55.21
2019-04-07T09:16:29.032Z,54.68
2019-04-07T09:17:33.117Z,55.82
2019-04-07T09:18:29.321Z,54.99
2019-04-07T09:19:28.813Z,54.89
2019-04-07T09:20:29.178Z,54.68
2019-04-07T09:21:38.004Z,54.99
2019-04-07T09:22:30.676Z,54.66
2019-04-07T09:23:28.583Z,55.19
2019-04-07T09:24:31.390Z,54.66
2019-04-07T09:25:28.328Z,54.16
2019-04-07T09:26:28.306Z,52.64
2019-04-07T09:27:28.239Z,53.34
2019-04-07T09:28:28.514Z,54.33
2019-04-07T09:29:29.994Z,53.52
2019-04-07T09:30:28.199Z,53.32
2019-04-07T09:31:28.217Z,52.72
2019-04-07T09:32:28.976Z,52.72
2019-04-07T09:33:28.673Z,52.82
2019-04-07T09:34:28.200Z,52.01
2019-04-07T09:35:28.138Z,51.40
2019-04-07T09:36:28.541Z,51.79
2019-04-07T09:37:28.466Z,52.49
2019-04-07T09:38:28.442Z,51.79
2019-04-07T09:39:31.350Z,52.29
2019-04-07T09:40:29.074Z,52.09
2019-04-07T09:41:29.655Z,51.59
2019-04-07T09:42:28.102Z,51.46
2019-04-07T09:43:30.254Z,51.86
2019-04-07T09:44:28.960Z,51.26
2019-04-07T09:45:28.763Z,51.34
2019-04-07T09:46:28.022Z,51.03
2019-04-07T09:47:28.045Z,51.23
2019-04-07T09:48:28.182Z,51.23
2019-04-07T09:49:27.988Z,51.54
2019-04-07T09:50:28.800Z,50.53
2019-04-07T09:51:28.053Z,49.12
2019-04-07T09:52:28.327Z,49.10
2019-04-07T09:53:28.623Z,49.30
2019-04-07T09:54:27.921Z,49.70
2019-04-07T09:55:27.939Z,50.10
2019-04-07T09:56:31.416Z,49.80
2019-04-07T09:57:27.923Z,49.30
2019-04-07T09:58:27.943Z,49.07
2019-04-07T09:59:28.486Z,48.57
2019-04-07T10:00:27.854Z,48.57
2019-04-07T10:01:29.012Z,50.28
2019-04-07T10:02:31.865Z,49.18
2019-04-07T10:03:28.878Z,49.48
2019-04-07T10:04:27.819Z,48.77
2019-04-07T10:05:27.802Z,48.35
2019-04-07T10:06:27.794Z,48.25
2019-04-07T10:07:28.353Z,48.14
2019-04-07T10:08:28.200Z,48.05
2019-04-07T10:09:27.984Z,48.47
2019-04-07T10:10:28.573Z,47.64
2019-04-07T10:11:28.456Z,47.64
2019-04-07T10:12:29.835Z,46.44
2019-04-07T10:13:28.514Z,46.14
2019-04-07T10:14:27.708Z,46.64
2019-04-07T10:15:27.871Z,47.42
2019-04-07T10:16:28.260Z,48.52
2019-04-07T10:17:27.789Z,46.81
2019-04-07T10:18:28.546Z,45.71
2019-04-07T10:19:28.256Z,46.14
2019-04-07T10:20:27.634Z,46.51
2019-04-07T10:21:27.630Z,46.61
2019-04-07T10:22:27.707Z,45.91
2019-04-07T10:23:27.601Z,46.59
2019-04-07T10:24:27.623Z,46.59
2019-04-07T10:25:29.007Z,45.79
2019-04-07T10:26:27.572Z,45.87
2019-04-07T10:27:27.551Z,46.37
2019-04-07T10:28:27.745Z,45.67
2019-04-07T10:29:27.631Z,45.57
2019-04-07T10:30:27.521Z,45.65
2019-04-07T10:31:28.223Z,45.17
2019-04-07T10:32:27.881Z,45.67
2019-04-07T10:33:27.489Z,45.34
2019-04-07T10:34:27.497Z,45.84
2019-04-07T10:35:27.472Z,45.47
2019-04-07T10:36:28.100Z,45.25
2019-04-07T10:37:27.444Z,44.34
2019-04-07T10:38:28.087Z,44.06
2019-04-07T10:39:27.571Z,45.84
2019-04-07T10:40:27.547Z,44.95
2019-04-07T10:41:28.161Z,44.24
2019-04-07T10:42:28.254Z,45.25
2019-04-07T10:43:28.156Z,44.14
2019-04-07T10:44:27.401Z,44.14
2019-04-07T10:45:27.358Z,44.74
2019-04-07T10:46:28.297Z,44.04
2019-04-07T10:47:27.977Z,44.74
2019-04-07T10:48:27.336Z,45.84
2019-04-07T10:49:27.436Z,45.02
2019-04-07T10:50:27.335Z,45.62
2019-04-07T10:51:27.462Z,45.22
2019-04-07T10:52:27.280Z,44.72
2019-04-07T10:53:27.341Z,44.50
2019-04-07T10:54:27.398Z,44.20
2019-04-07T10:55:27.692Z,43.90
2019-04-07T10:56:27.688Z,44.40
2019-04-07T10:57:27.747Z,44.30
2019-04-07T10:58:27.945Z,43.90
2019-04-07T10:59:27.904Z,43.98
2019-04-07T11:00:27.773Z,45.80
2019-04-07T11:01:27.170Z,44.50
2019-04-07T11:02:27.610Z,43.88
2019-04-07T11:03:27.360Z,44.08
2019-04-07T11:04:27.352Z,44.76
2019-04-07T11:05:27.908Z,43.66
2019-04-07T11:06:27.301Z,44.06
2019-04-07T11:07:27.116Z,43.76
2019-04-07T11:08:27.096Z,45.16
2019-04-07T11:09:28.251Z,44.06
2019-04-07T11:10:34.487Z,45.06
2019-04-07T11:11:28.092Z,45.56
2019-04-07T11:12:27.573Z,46.44
2019-04-07T11:13:27.627Z,46.14
2019-04-07T11:14:27.036Z,46.14
2019-04-07T11:15:27.141Z,43.71
2019-04-07T11:16:27.047Z,43.91
2019-04-07T11:17:27.254Z,43.82
2019-04-07T11:18:27.632Z,42.91
2019-04-07T11:19:28.425Z,42.91
2019-04-07T11:20:26.981Z,42.71
2019-04-07T11:21:26.990Z,43.41
2019-04-07T11:22:26.939Z,43.41
2019-04-07T11:23:27.016Z,43.32
2019-04-07T11:24:27.787Z,43.21
2019-04-07T11:25:27.323Z,42.32
2019-04-07T11:26:27.391Z,42.82
2019-04-07T11:27:27.641Z,42.32
2019-04-07T11:28:28.820Z,42.91
2019-04-07T11:29:26.864Z,42.41
2019-04-07T11:30:27.339Z,43.21
2019-04-07T11:31:27.682Z,43.82
2019-04-07T11:32:27.143Z,42.41
2019-04-07T11:33:26.924Z,42.82
2019-04-07T11:34:27.109Z,43.13
2019-04-07T11:35:29.614Z,43.43
2019-04-07T11:36:26.810Z,44.01
2019-04-07T11:37:27.488Z,43.93
2019-04-07T11:38:26.791Z,43.84
2019-04-07T11:39:27.465Z,42.54
2019-04-07T11:40:27.056Z,43.21
2019-04-07T11:41:28.664Z,43.12
2019-04-07T11:42:26.746Z,41.52
2019-04-07T11:43:27.023Z,42.21
2019-04-07T11:44:26.704Z,42.71
2019-04-07T11:45:26.979Z,43.12
2019-04-07T11:46:27.143Z,42.21
2019-04-07T11:47:26.759Z,42.41
2019-04-07T11:48:27.498Z,42.32
2019-04-07T11:49:26.735Z,42.41
2019-04-07T11:50:26.709Z,41.71
2019-04-07T11:51:26.618Z,42.52
2019-04-07T11:52:26.639Z,41.31
2019-04-07T11:53:27.453Z,41.41
2019-04-07T11:54:26.617Z,41.61
2019-04-07T11:55:27.339Z,41.52
2019-04-07T11:56:26.570Z,42.21
2019-04-07T11:57:27.115Z,41.41
2019-04-07T11:58:31.384Z,40.41
2019-04-07T11:59:27.536Z,40.71
2019-04-07T12:00:26.972Z,41.41
2019-04-07T12:01:27.110Z,40.30
2019-04-07T12:02:27.308Z,40.01
2019-04-07T12:03:27.986Z,40.61
2019-04-07T12:04:26.583Z,40.19
2019-04-07T12:05:26.813Z,41.19
2019-04-07T12:06:26.875Z,41.09
2019-04-07T12:07:26.502Z,41.38
2019-04-07T12:08:32.310Z,39.98
2019-04-07T12:09:28.219Z,39.37
2019-04-07T12:10:26.991Z,38.46
2019-04-07T12:11:26.391Z,38.16
2019-04-07T12:12:26.589Z,38.56
2019-04-07T12:13:26.688Z,39.46
2019-04-07T12:14:26.368Z,38.26
2019-04-07T12:15:28.659Z,39.46
2019-04-07T12:16:28.710Z,39.46
2019-04-07T12:17:26.330Z,39.36
2019-04-07T12:18:26.723Z,40.56
2019-04-07T12:19:26.306Z,39.84
2019-04-07T12:20:29.022Z,39.84
2019-04-07T12:21:27.854Z,39.43
2019-04-07T12:22:27.108Z,39.64
2019-04-07T12:23:27.777Z,39.54
2019-04-07T12:24:28.637Z,39.34
2019-04-07T12:25:26.893Z,39.34
2019-04-07T12:26:27.005Z,39.43
2019-04-07T12:27:26.995Z,38.34
2019-04-07T12:28:26.843Z,38.14
2019-04-07T12:29:27.105Z,38.84
2019-04-07T12:30:26.468Z,38.46
2019-04-07T12:31:26.917Z,38.14
2019-04-07T12:32:26.313Z,38.04
2019-04-07T12:33:26.579Z,38.44
2019-04-07T12:34:26.499Z,38.04
2019-04-07T12:35:26.287Z,38.04
2019-04-07T12:36:30.228Z,36.94
2019-04-07T12:37:26.258Z,37.04
2019-04-07T12:38:26.420Z,36.74
2019-04-07T12:39:26.860Z,37.74
2019-04-07T12:40:26.087Z,37.94
2019-04-07T12:41:27.722Z,37.74
2019-04-07T12:42:26.689Z,37.54
2019-04-07T12:43:26.150Z,37.23
2019-04-07T12:44:26.056Z,36.52
2019-04-07T12:45:26.665Z,37.42
2019-04-07T12:46:26.010Z,36.63
2019-04-07T12:47:26.688Z,36.52
2019-04-07T12:48:29.760Z,36.93
2019-04-07T12:49:27.004Z,36.82
2019-04-07T12:50:26.364Z,37.02
2019-04-07T12:51:25.952Z,37.04
2019-04-07T12:52:28.050Z,36.32